Time;durP1;ratioP1;P1;durP2;ratioP2;P2;SDS_P1;SDS_P2;PMS_P1;PMS_P2;Temp;Humidity;BMP_temperature;BMP_pressure;BME280_temperature;BME280_humidity;BME280_pressure;Samples;Min_cycle;Max_cycle;Signal;HPM_P1;HPM_P2
2022/03/30 00:02:10;;;;;;;;;;;12.90;99.90;;;;;;5050464;28;19909;-56
2022/03/30 00:04:38;;;;;;;;;;;12.80;99.90;;;;;;5048744;28;19913;-57
2022/03/30 00:07:04;;;;;;;;;;;12.80;99.90;;;;;;5049393;28;19935;-56
2022/03/30 00:09:32;;;;;;;;;;;12.80;99.90;;;;;;5049157;28;20393;-52
2022/03/30 00:11:58;;;;;;;;;;;12.80;99.90;;;;;;5048454;28;20377;-58
2022/03/30 00:14:23;;;;;;;;;;;12.70;99.90;;;;;;5052691;28;19924;-56
2022/03/30 00:16:49;;;;;;;;;;;12.60;99.90;;;;;;5048582;28;19913;-53
2022/03/30 00:19:15;;;;;;;;;;;12.60;99.90;;;;;;5048458;28;19916;-57
2022/03/30 00:21:40;;;;;;;;;;;12.60;99.90;;;;;;5049401;28;19919;-55
2022/03/30 00:24:06;;;;;;;;;;;12.60;99.90;;;;;;5050585;28;19928;-56
2022/03/30 00:26:31;;;;;;;;;;;12.60;99.90;;;;;;5051500;28;19909;-54
2022/03/30 00:28:57;;;;;;;;;;;12.60;99.90;;;;;;5049509;28;20011;-56
2022/03/30 00:31:22;;;;;;;;;;;12.60;99.90;;;;;;5048241;28;19950;-59
2022/03/30 00:33:50;;;;;;;;;;;12.60;99.90;;;;;;5048153;28;20000;-56
2022/03/30 00:36:15;;;;;;;;;;;12.50;99.90;;;;;;5048465;28;19913;-57
2022/03/30 00:38:41;;;;;;;;;;;12.50;99.90;;;;;;5050497;28;20008;-57
2022/03/30 00:41:07;;;;;;;;;;;12.50;99.90;;;;;;5049832;28;19909;-58
2022/03/30 00:43:33;;;;;;;;;;;12.50;99.90;;;;;;5048409;28;19931;-57
2022/03/30 00:45:58;;;;;;;;;;;12.50;99.90;;;;;;5048198;28;19955;-55
2022/03/30 00:48:24;;;;;;;;;;;12.50;99.90;;;;;;5048049;28;20466;-55
2022/03/30 00:50:49;;;;;;;;;;;12.50;99.90;;;;;;5049117;28;19928;-56
2022/03/30 00:53:15;;;;;;;;;;;12.50;99.90;;;;;;5050903;28;19909;-57
2022/03/30 00:55:40;;;;;;;;;;;12.50;99.90;;;;;;5048415;28;19917;-57
2022/03/30 00:58:06;;;;;;;;;;;12.50;99.90;;;;;;5047865;28;19936;-55
2022/03/30 01:00:32;;;;;;;;;;;12.50;99.90;;;;;;5047582;28;19966;-57
2022/03/30 01:02:57;;;;;;;;;;;12.50;99.90;;;;;;5048717;28;19912;-57
2022/03/30 01:05:23;;;;;;;;;;;12.50;99.90;;;;;;5047072;28;19920;-56
2022/03/30 01:07:49;;;;;;;;;;;12.50;99.90;;;;;;5047644;28;20339;-57
2022/03/30 01:10:15;;;;;;;;;;;12.50;99.90;;;;;;5047562;28;20511;-56
2022/03/30 01:12:41;;;;;;;;;;;12.50;99.90;;;;;;5047731;28;19913;-56
2022/03/30 01:15:08;;;;;;;;;;;12.50;99.90;;;;;;5047610;28;20376;-57
2022/03/30 01:17:34;;;;;;;;;;;12.50;99.90;;;;;;5050244;28;19912;-53
2022/03/30 01:19:59;;;;;;;;;;;12.50;99.90;;;;;;5049883;28;19909;-54
2022/03/30 01:22:25;;;;;;;;;;;12.50;99.90;;;;;;5047691;28;19917;-58
2022/03/30 01:24:50;;;;;;;;;;;12.50;99.90;;;;;;5047227;28;19920;-57
2022/03/30 01:27:16;;;;;;;;;;;12.50;99.90;;;;;;5048268;28;19959;-57
2022/03/30 01:32:26;;;;;;;;;;;12.50;99.90;;;;;;5051094;28;19927;-57
2022/03/30 01:34:56;;;;;;;;;;;12.50;99.90;;;;;;5031984;28;19923;-58
2022/03/30 01:37:23;;;;;;;;;;;12.50;99.90;;;;;;5047164;28;19916;-58
2022/03/30 01:39:48;;;;;;;;;;;12.50;99.90;;;;;;5047303;28;19921;-57
2022/03/30 01:42:14;;;;;;;;;;;12.50;99.90;;;;;;5047670;28;19921;-56
2022/03/30 01:44:40;;;;;;;;;;;12.50;99.90;;;;;;5049086;28;19909;-57
2022/03/30 01:47:05;;;;;;;;;;;12.40;99.90;;;;;;5047919;28;19916;-57
2022/03/30 01:49:31;;;;;;;;;;;12.40;99.90;;;;;;5047334;28;19921;-56
2022/03/30 01:51:58;;;;;;;;;;;12.40;99.90;;;;;;5046866;28;19916;-57
2022/03/30 01:54:25;;;;;;;;;;;12.30;99.90;;;;;;5047259;28;19935;-57
2022/03/30 01:56:51;;;;;;;;;;;12.30;99.90;;;;;;5048720;28;19921;-57
2022/03/30 01:59:17;;;;;;;;;;;12.30;99.90;;;;;;5049239;28;20007;-55
2022/03/30 02:01:42;;;;;;;;;;;12.30;99.90;;;;;;5047068;28;19916;-57
2022/03/30 02:04:08;;;;;;;;;;;12.20;99.90;;;;;;5046953;28;19913;-57
2022/03/30 02:06:34;;;;;;;;;;;12.20;99.90;;;;;;5047330;28;19916;-57
2022/03/30 02:09:00;;;;;;;;;;;12.10;99.90;;;;;;5047091;28;20502;-56
2022/03/30 02:11:28;;;;;;;;;;;12.10;99.90;;;;;;5050469;28;19913;-57
2022/03/30 02:13:54;;;;;;;;;;;12.10;99.90;;;;;;5048372;28;19923;-57
2022/03/30 02:16:19;;;;;;;;;;;12.00;99.90;;;;;;5047000;28;19988;-57
2022/03/30 02:18:45;;;;;;;;;;;12.00;99.90;;;;;;5046643;28;19959;-56
2022/03/30 02:21:11;;;;;;;;;;;11.90;99.90;;;;;;5047122;28;20011;-55
2022/03/30 02:23:36;;;;;;;;;;;12.00;99.90;;;;;;5049122;28;19916;-56
2022/03/30 02:26:02;;;;;;;;;;;12.00;99.90;;;;;;5047825;28;20381;-56
2022/03/30 02:28:27;;;;;;;;;;;11.90;99.90;;;;;;5046594;28;19909;-56
2022/03/30 02:30:53;;;;;;;;;;;11.90;99.90;;;;;;5046688;28;19929;-57
2022/03/30 02:33:19;;;;;;;;;;;11.90;99.90;;;;;;5046651;28;19925;-56
2022/03/30 02:35:44;;;;;;;;;;;11.90;99.90;;;;;;5048408;28;19962;-57
2022/03/30 02:38:09;;;;;;;;;;;11.90;99.90;;;;;;5048526;28;19940;-57
2022/03/30 02:40:35;;;;;;;;;;;11.80;99.90;;;;;;5046599;28;19913;-57
2022/03/30 02:43:01;;;;;;;;;;;11.80;99.90;;;;;;5046657;28;19935;-56
2022/03/30 02:45:26;;;;;;;;;;;11.80;99.90;;;;;;5046709;28;19913;-57
2022/03/30 02:50:36;;;;;;;;;;;11.80;99.90;;;;;;5046162;28;19975;-57
2022/03/30 02:53:01;;;;;;;;;;;11.80;99.90;;;;;;5047616;28;19940;-58
2022/03/30 02:55:27;;;;;;;;;;;11.80;99.90;;;;;;5048043;28;20411;-57
2022/03/30 02:57:52;;;;;;;;;;;11.70;99.90;;;;;;5049686;28;19996;-58
2022/03/30 03:00:18;;;;;;;;;;;11.70;99.90;;;;;;5050055;28;22117;-55
2022/03/30 03:02:44;;;;;;;;;;;11.70;99.90;;;;;;5052289;28;19967;-57
2022/03/30 03:05:09;;;;;;;;;;;11.70;99.90;;;;;;5051005;28;20400;-58
2022/03/30 03:07:35;;;;;;;;;;;11.80;99.90;;;;;;5050425;28;19915;-57
2022/03/30 03:10:01;;;;;;;;;;;11.80;99.90;;;;;;5049499;28;19927;-58
2022/03/30 03:12:27;;;;;;;;;;;11.80;99.90;;;;;;5050218;28;19931;-59
2022/03/30 03:14:52;;;;;;;;;;;11.80;99.90;;;;;;5050760;28;20421;-57
2022/03/30 03:17:18;;;;;;;;;;;11.80;99.90;;;;;;5052500;28;19943;-58
2022/03/30 03:19:43;;;;;;;;;;;11.80;99.90;;;;;;5050157;28;19913;-57
2022/03/30 03:22:08;;;;;;;;;;;11.80;99.90;;;;;;5049831;28;19920;-56
2022/03/30 03:24:34;;;;;;;;;;;11.90;99.90;;;;;;5049459;28;20004;-56
2022/03/30 03:27:00;;;;;;;;;;;11.90;99.90;;;;;;5050001;28;20301;-57
2022/03/30 03:29:25;;;;;;;;;;;11.90;99.90;;;;;;5053093;28;20403;-56
2022/03/30 03:31:51;;;;;;;;;;;11.90;99.90;;;;;;5034218;28;19924;-56
2022/03/30 03:34:16;;;;;;;;;;;11.90;99.90;;;;;;5049563;28;19913;-57
2022/03/30 03:36:42;;;;;;;;;;;11.90;99.90;;;;;;5049696;28;19931;-52
2022/03/30 03:39:07;;;;;;;;;;;11.90;99.90;;;;;;5049442;28;19913;-52
2022/03/30 03:41:33;;;;;;;;;;;11.90;99.90;;;;;;5052044;28;19913;-58
2022/03/30 03:43:58;;;;;;;;;;;11.90;99.90;;;;;;5050449;28;19917;-51
2022/03/30 03:46:24;;;;;;;;;;;11.90;99.90;;;;;;5049240;28;19912;-50
2022/03/30 03:48:50;;;;;;;;;;;11.90;99.90;;;;;;5049069;28;19925;-56
2022/03/30 03:51:16;;;;;;;;;;;11.90;99.90;;;;;;5049366;28;19910;-57
2022/03/30 03:53:41;;;;;;;;;;;11.90;99.90;;;;;;5051672;28;19913;-55
2022/03/30 03:56:07;;;;;;;;;;;11.90;99.90;;;;;;5050165;28;19909;-52
2022/03/30 03:58:32;;;;;;;;;;;11.90;99.90;;;;;;5033576;28;19962;-57
2022/03/30 04:00:58;;;;;;;;;;;11.90;99.90;;;;;;5049095;28;19916;-57
2022/03/30 04:03:23;;;;;;;;;;;11.90;99.90;;;;;;5049129;28;19916;-57
2022/03/30 04:05:49;;;;;;;;;;;11.90;99.90;;;;;;5050600;28;19920;-55
2022/03/30 04:08:15;;;;;;;;;;;11.90;99.90;;;;;;5050546;28;19963;-55
2022/03/30 04:10:41;;;;;;;;;;;11.90;99.90;;;;;;5049048;28;19963;-57
2022/03/30 04:13:07;;;;;;;;;;;11.90;99.90;;;;;;5049088;28;19945;-56
2022/03/30 04:15:34;;;;;;;;;;;11.90;99.90;;;;;;5048757;28;19916;-56
2022/03/30 04:18:00;;;;;;;;;;;11.90;99.90;;;;;;5048705;28;20483;-55
2022/03/30 04:20:26;;;;;;;;;;;11.90;99.90;;;;;;5052645;28;19920;-56
2022/03/30 04:22:51;;;;;;;;;;;11.90;99.90;;;;;;5048440;28;19909;-54
2022/03/30 04:25:17;;;;;;;;;;;11.90;99.90;;;;;;5048642;28;19913;-54
2022/03/30 04:27:49;;;;;;;;;;;11.90;99.90;;;;;;5048666;28;19909;-55
2022/03/30 04:30:16;;;;;;;;;;;11.90;99.90;;;;;;5048556;28;19925;-56
2022/03/30 04:32:44;;;;;;;;;;;11.90;99.90;;;;;;5050323;28;21187;-56
2022/03/30 04:35:11;;;;;;;;;;;11.90;99.90;;;;;;5050092;28;20345;-54
2022/03/30 04:37:37;;;;;;;;;;;11.90;99.90;;;;;;5048064;28;19913;-55
2022/03/30 04:40:02;;;;;;;;;;;11.90;99.90;;;;;;5048771;28;19923;-52
2022/03/30 04:42:28;;;;;;;;;;;11.90;99.90;;;;;;5049300;28;20439;-56
2022/03/30 04:44:53;;;;;;;;;;;11.90;99.90;;;;;;5049503;28;19967;-57
2022/03/30 04:47:19;;;;;;;;;;;11.90;99.90;;;;;;5051225;28;19963;-56
2022/03/30 04:49:44;;;;;;;;;;;11.90;99.90;;;;;;5048595;28;20317;-57
2022/03/30 04:52:10;;;;;;;;;;;11.90;99.90;;;;;;5048638;28;19913;-56
2022/03/30 04:54:35;;;;;;;;;;;11.90;99.90;;;;;;5048452;28;19963;-55
2022/03/30 04:57:01;;;;;;;;;;;12.00;99.90;;;;;;5048579;28;19919;-51
2022/03/30 04:59:26;;;;;;;;;;;11.90;99.90;;;;;;5052260;28;19912;-57
2022/03/30 05:01:52;;;;;;;;;;;11.90;99.90;;;;;;5048673;28;19909;-56
2022/03/30 05:04:17;;;;;;;;;;;11.90;99.90;;;;;;5048562;28;19935;-54
2022/03/30 05:06:43;;;;;;;;;;;11.80;99.90;;;;;;5047973;28;19908;-57
2022/03/30 05:09:08;;;;;;;;;;;11.90;99.90;;;;;;5048263;28;20246;-57
2022/03/30 05:11:34;;;;;;;;;;;11.80;99.90;;;;;;5050898;28;20020;-56
2022/03/30 05:13:59;;;;;;;;;;;11.90;99.90;;;;;;5050799;28;20019;-56
2022/03/30 05:16:25;;;;;;;;;;;11.80;99.90;;;;;;5048028;28;20327;-56
2022/03/30 05:18:50;;;;;;;;;;;11.90;99.90;;;;;;5048007;28;20464;-51
2022/03/30 05:21:16;;;;;;;;;;;11.90;99.90;;;;;;5048028;28;20253;-53
2022/03/30 05:23:41;;;;;;;;;;;11.90;99.90;;;;;;5050460;28;20050;-54
2022/03/30 05:26:07;;;;;;;;;;;11.90;99.90;;;;;;5049377;28;19909;-58
2022/03/30 05:28:32;;;;;;;;;;;11.80;99.90;;;;;;5047919;28;19912;-56
2022/03/30 05:30:58;;;;;;;;;;;11.80;99.90;;;;;;5047429;28;20054;-58
2022/03/30 05:33:24;;;;;;;;;;;11.80;99.90;;;;;;5047910;28;19916;-57
2022/03/30 05:35:50;;;;;;;;;;;11.80;99.90;;;;;;5049005;28;19931;-53
2022/03/30 05:38:16;;;;;;;;;;;11.90;99.90;;;;;;5049918;28;20025;-57
2022/03/30 05:40:42;;;;;;;;;;;11.90;99.90;;;;;;5033392;28;19915;-57
2022/03/30 05:43:07;;;;;;;;;;;11.80;99.90;;;;;;5047750;28;20412;-57
2022/03/30 05:45:33;;;;;;;;;;;11.90;99.90;;;;;;5047503;28;19909;-57
2022/03/30 05:47:59;;;;;;;;;;;11.90;99.90;;;;;;5048042;28;20087;-58
2022/03/30 05:50:25;;;;;;;;;;;11.90;99.90;;;;;;5050778;28;19921;-53
2022/03/30 05:52:51;;;;;;;;;;;11.90;99.90;;;;;;5047379;28;19919;-53
2022/03/30 05:55:17;;;;;;;;;;;11.90;99.90;;;;;;5047937;28;19913;-57
2022/03/30 05:57:42;;;;;;;;;;;11.80;99.90;;;;;;5047682;28;20355;-58
2022/03/30 06:00:08;;;;;;;;;;;11.90;99.90;;;;;;5047693;28;19913;-56
2022/03/30 06:02:34;;;;;;;;;;;11.80;99.90;;;;;;5050432;28;20492;-57
2022/03/30 06:05:00;;;;;;;;;;;11.80;99.90;;;;;;5049384;28;20348;-58
2022/03/30 06:07:25;;;;;;;;;;;11.80;99.90;;;;;;5046129;28;20274;-55
2022/03/30 06:09:51;;;;;;;;;;;11.80;99.90;;;;;;5048923;28;20421;-52
2022/03/30 06:12:16;;;;;;;;;;;11.90;99.90;;;;;;5046917;28;19921;-55
2022/03/30 06:14:42;;;;;;;;;;;11.90;99.90;;;;;;5050060;28;19932;-57
2022/03/30 06:17:08;;;;;;;;;;;11.80;99.90;;;;;;5048331;28;19909;-65
2022/03/30 06:19:33;;;;;;;;;;;11.90;99.90;;;;;;5047148;28;19920;-64
2022/03/30 06:22:00;;;;;;;;;;;11.90;99.90;;;;;;5047090;28;20352;-66
2022/03/30 06:24:26;;;;;;;;;;;11.90;99.90;;;;;;5047433;28;19916;-66
2022/03/30 06:26:51;;;;;;;;;;;12.00;99.90;;;;;;5048326;28;19924;-65
2022/03/30 06:29:17;;;;;;;;;;;11.90;99.90;;;;;;5050166;28;19956;-66
2022/03/30 06:31:43;;;;;;;;;;;12.00;99.90;;;;;;5048272;28;19921;-65
2022/03/30 06:34:08;;;;;;;;;;;12.00;99.90;;;;;;5050812;28;19913;-64
2022/03/30 06:36:37;;;;;;;;;;;12.00;99.90;;;;;;5051144;28;19917;-64
2022/03/30 06:39:03;;;;;;;;;;;12.00;99.90;;;;;;5051362;28;19998;-65
2022/03/30 06:41:28;;;;;;;;;;;12.00;99.90;;;;;;5054341;28;19908;-64
2022/03/30 06:43:54;;;;;;;;;;;12.00;99.90;;;;;;5052682;28;20352;-65
2022/03/30 06:46:20;;;;;;;;;;;12.00;99.90;;;;;;5051148;28;19919;-65
2022/03/30 06:48:46;;;;;;;;;;;12.00;99.90;;;;;;5050028;28;20006;-74
2022/03/30 06:51:12;;;;;;;;;;;12.10;99.90;;;;;;5053102;28;19912;-73
2022/03/30 06:53:38;;;;;;;;;;;12.10;99.90;;;;;;5053048;28;20022;-73
2022/03/30 06:56:03;;;;;;;;;;;12.10;99.90;;;;;;5053475;28;20011;-72
2022/03/30 06:58:29;;;;;;;;;;;12.10;99.90;;;;;;5051114;28;19917;-72
2022/03/30 07:00:56;;;;;;;;;;;12.10;99.90;;;;;;5052355;28;19928;-71
2022/03/30 07:03:25;;;;;;;;;;;12.10;99.90;;;;;;5043337;28;19924;-74
2022/03/30 07:05:51;;;;;;;;;;;12.20;99.90;;;;;;5046015;28;19921;-73
2022/03/30 07:11:00;;;;;;;;;;;12.20;99.90;;;;;;5044730;28;20010;-74
2022/03/30 07:13:26;;;;;;;;;;;12.20;99.90;;;;;;5044163;28;20309;-75
2022/03/30 07:15:51;;;;;;;;;;;12.20;99.90;;;;;;5044794;28;19924;-74
2022/03/30 07:18:19;;;;;;;;;;;12.30;99.90;;;;;;5044043;28;19962;-72
2022/03/30 07:20:45;;;;;;;;;;;12.30;99.90;;;;;;5043440;28;19913;-75
2022/03/30 07:23:11;;;;;;;;;;;12.30;99.90;;;;;;5046117;28;19920;-74
2022/03/30 07:25:37;;;;;;;;;;;12.30;99.90;;;;;;5047233;28;20003;-74
2022/03/30 07:28:03;;;;;;;;;;;12.40;99.90;;;;;;5044714;28;19973;-72
2022/03/30 07:30:29;;;;;;;;;;;12.40;99.90;;;;;;5040613;28;19928;-74
2022/03/30 07:32:56;;;;;;;;;;;12.40;99.90;;;;;;5047583;28;19917;-74
2022/03/30 07:35:22;;;;;;;;;;;12.40;99.90;;;;;;5050387;28;19917;-73
2022/03/30 07:37:48;;;;;;;;;;;12.50;99.90;;;;;;5049715;28;20333;-72
2022/03/30 07:40:17;;;;;;;;;;;12.50;99.90;;;;;;5049548;28;20424;-72
2022/03/30 07:42:44;;;;;;;;;;;12.50;99.90;;;;;;5039747;28;19913;-72
2022/03/30 07:45:10;;;;;;;;;;;12.50;99.90;;;;;;5049461;28;19913;-73
2022/03/30 07:47:36;;;;;;;;;;;12.50;99.90;;;;;;5052403;28;19913;-73
2022/03/30 07:50:02;;;;;;;;;;;12.60;99.90;;;;;;5050815;28;20035;-74
2022/03/30 07:52:28;;;;;;;;;;;12.60;99.90;;;;;;5049755;28;20081;-73
2022/03/30 07:54:54;;;;;;;;;;;12.60;99.90;;;;;;5050018;28;20829;-73
2022/03/30 07:57:26;;;;;;;;;;;12.50;99.90;;;;;;5050163;28;20000;-73
2022/03/30 07:59:55;;;;;;;;;;;12.50;99.90;;;;;;5050392;28;19913;-72
2022/03/30 08:02:21;;;;;;;;;;;12.50;99.90;;;;;;5052595;28;19931;-72
2022/03/30 08:04:47;;;;;;;;;;;12.50;99.90;;;;;;5051369;28;19920;-73
2022/03/30 08:07:14;;;;;;;;;;;12.40;99.90;;;;;;5049439;28;19913;-73
2022/03/30 08:09:40;;;;;;;;;;;12.40;99.90;;;;;;5049381;28;19925;-72
2022/03/30 08:12:05;;;;;;;;;;;12.40;99.90;;;;;;5049311;28;19976;-72
2022/03/30 08:14:31;;;;;;;;;;;12.30;99.90;;;;;;5052116;28;20340;-73
2022/03/30 08:16:57;;;;;;;;;;;12.30;99.90;;;;;;5050383;28;19932;-73
2022/03/30 08:19:22;;;;;;;;;;;12.20;99.90;;;;;;5049194;28;19920;-73
2022/03/30 08:24:32;;;;;;;;;;;12.20;99.90;;;;;;5049500;28;19924;-73
2022/03/30 08:26:59;;;;;;;;;;;12.10;99.90;;;;;;5049396;28;20290;-72
2022/03/30 08:29:24;;;;;;;;;;;12.10;99.90;;;;;;5050781;28;19966;-72
2022/03/30 08:31:50;;;;;;;;;;;12.10;99.90;;;;;;5048773;28;20323;-73
2022/03/30 08:34:16;;;;;;;;;;;12.10;99.90;;;;;;5049319;28;19913;-73
2022/03/30 08:36:42;;;;;;;;;;;12.10;99.90;;;;;;5051348;28;19912;-73
2022/03/30 08:39:11;;;;;;;;;;;12.10;99.90;;;;;;5049039;28;19917;-73
2022/03/30 08:41:44;;;;;;;;;;;12.10;99.90;;;;;;5051336;28;20376;-74
2022/03/30 08:44:10;;;;;;;;;;;12.10;99.90;;;;;;5050109;28;19999;-73
2022/03/30 08:46:37;;;;;;;;;;;12.10;99.90;;;;;;5048321;28;19917;-74
2022/03/30 08:49:02;;;;;;;;;;;12.10;99.90;;;;;;5048779;28;19912;-73
2022/03/30 08:51:29;;;;;;;;;;;12.00;99.90;;;;;;5033573;28;19981;-74
2022/03/30 08:53:55;;;;;;;;;;;12.00;99.90;;;;;;5049085;28;19913;-74
2022/03/30 08:56:20;;;;;;;;;;;12.00;99.90;;;;;;5051687;28;19962;-72
2022/03/30 08:58:46;;;;;;;;;;;12.10;99.90;;;;;;5048497;28;20051;-73
2022/03/30 09:01:12;;;;;;;;;;;12.10;99.90;;;;;;5048563;28;19913;-74
2022/03/30 09:03:54;;;;;;;;;;;12.10;99.90;;;;;;5048231;28;19912;-72
2022/03/30 09:06:38;;;;;;;;;;;12.20;99.90;;;;;;5048467;28;20059;-73
2022/03/30 09:09:04;;;;;;;;;;;12.20;99.90;;;;;;5033185;28;19913;-74
2022/03/30 09:11:36;;;;;;;;;;;12.30;99.90;;;;;;5051805;28;19909;-72
2022/03/30 09:14:05;;;;;;;;;;;12.20;99.90;;;;;;5050489;28;19924;-74
2022/03/30 09:16:36;;;;;;;;;;;12.20;99.90;;;;;;5048119;28;19913;-74
2022/03/30 09:19:08;;;;;;;;;;;12.20;99.90;;;;;;5048185;28;20334;-74
2022/03/30 09:21:47;;;;;;;;;;;12.30;99.90;;;;;;5048264;28;19913;-73
2022/03/30 09:24:13;;;;;;;;;;;12.40;99.90;;;;;;5048165;28;19970;-73
2022/03/30 09:26:40;;;;;;;;;;;12.50;99.90;;;;;;5050425;28;19913;-73
2022/03/30 09:29:07;;;;;;;;;;;12.50;99.90;;;;;;5048900;28;19920;-73
2022/03/30 09:31:34;;;;;;;;;;;12.50;99.90;;;;;;5047989;28;20300;-74
2022/03/30 09:34:00;;;;;;;;;;;12.60;99.90;;;;;;5047828;28;20442;-72
2022/03/30 09:36:30;;;;;;;;;;;12.60;99.90;;;;;;5047972;28;19917;-74
2022/03/30 09:38:56;;;;;;;;;;;12.60;99.90;;;;;;5048368;28;19964;-72
2022/03/30 09:41:21;;;;;;;;;;;12.70;99.90;;;;;;5050484;28;20073;-72
2022/03/30 09:43:47;;;;;;;;;;;12.90;99.90;;;;;;5047595;28;19913;-72
2022/03/30 09:46:13;;;;;;;;;;;13.00;99.90;;;;;;5047892;28;19913;-72
2022/03/30 09:48:44;;;;;;;;;;;13.10;99.90;;;;;;5047887;28;19913;-71
2022/03/30 09:51:09;;;;;;;;;;;13.10;99.90;;;;;;5047479;28;19960;-72
2022/03/30 09:53:35;;;;;;;;;;;13.20;99.90;;;;;;5049972;28;19952;-72
2022/03/30 09:56:03;;;;;;;;;;;13.30;99.90;;;;;;5049548;28;19932;-71
2022/03/30 09:58:34;;;;;;;;;;;13.30;99.90;;;;;;5047930;28;19912;-71
2022/03/30 10:01:03;;;;;;;;;;;13.40;99.90;;;;;;5043017;28;20355;-69
2022/03/30 10:03:38;;;;;;;;;;;13.50;99.90;;;;;;5047806;28;19913;-73
2022/03/30 10:06:04;;;;;;;;;;;13.50;99.90;;;;;;5036514;28;19917;-69
2022/03/30 10:08:30;;;;;;;;;;;13.50;99.90;;;;;;5037798;28;19966;-72
2022/03/30 10:10:56;;;;;;;;;;;13.50;99.90;;;;;;5042692;28;19925;-72
2022/03/30 10:13:22;;;;;;;;;;;13.50;99.90;;;;;;5042480;28;19935;-72
2022/03/30 10:15:47;;;;;;;;;;;13.50;99.90;;;;;;5040750;28;19913;-73
2022/03/30 10:18:13;;;;;;;;;;;13.40;99.90;;;;;;5021425;28;19912;-71
2022/03/30 10:20:39;;;;;;;;;;;13.40;99.90;;;;;;5039014;28;19956;-73
2022/03/30 10:23:11;;;;;;;;;;;13.50;99.90;;;;;;5044597;28;20289;-73
2022/03/30 10:25:56;;;;;;;;;;;13.50;99.90;;;;;;5039917;28;19944;-73
2022/03/30 10:28:22;;;;;;;;;;;13.50;99.90;;;;;;5041803;28;19920;-66
2022/03/30 10:30:54;;;;;;;;;;;13.40;99.90;;;;;;5039698;28;19921;-72
2022/03/30 10:33:49;;;;;;;;;;;13.40;99.90;;;;;;5038898;28;19917;-72
2022/03/30 10:36:20;;;;;;;;;;;13.40;99.90;;;;;;5021266;28;19960;-72
2022/03/30 10:39:05;;;;;;;;;;;13.40;99.90;;;;;;5042937;28;19927;-73
2022/03/30 10:41:50;;;;;;;;;;;13.30;99.90;;;;;;5037623;28;20400;-72
2022/03/30 10:44:38;;;;;;;;;;;13.40;99.90;;;;;;5040322;28;19940;-73
2022/03/30 10:47:12;;;;;;;;;;;13.40;99.90;;;;;;5039635;28;19963;-72
2022/03/30 10:49:39;;;;;;;;;;;13.50;99.90;;;;;;5040016;28;19917;-73
2022/03/30 10:52:23;;;;;;;;;;;13.50;99.90;;;;;;5041120;28;19928;-71
2022/03/30 10:54:54;;;;;;;;;;;13.50;99.90;;;;;;5039728;28;19913;-73
2022/03/30 10:57:38;;;;;;;;;;;13.40;99.90;;;;;;5038478;28;19913;-73
2022/03/30 11:00:04;;;;;;;;;;;13.40;99.90;;;;;;5037802;28;19916;-72
2022/03/30 11:02:40;;;;;;;;;;;13.50;99.90;;;;;;5040091;28;19948;-73
2022/03/30 11:05:12;;;;;;;;;;;13.50;99.90;;;;;;5040053;28;19999;-73
2022/03/30 11:07:38;;;;;;;;;;;13.50;99.90;;;;;;5039092;28;19940;-69
2022/03/30 11:10:17;;;;;;;;;;;13.60;99.90;;;;;;5040589;28;20424;-72
2022/03/30 11:13:11;;;;;;;;;;;13.60;99.90;;;;;;5040410;28;20351;-73
2022/03/30 11:15:55;;;;;;;;;;;13.60;99.90;;;;;;5041537;28;19913;-72
2022/03/30 11:18:21;;;;;;;;;;;13.60;99.90;;;;;;5047239;28;19921;-74
2022/03/30 11:21:06;;;;;;;;;;;13.60;99.90;;;;;;5042601;28;19919;-73
2022/03/30 11:23:31;;;;;;;;;;;13.60;99.90;;;;;;5039298;28;20250;-73
2022/03/30 11:25:57;;;;;;;;;;;13.60;99.90;;;;;;5042605;28;20437;-71
2022/03/30 11:28:40;;;;;;;;;;;13.60;99.90;;;;;;5043920;28;19917;-71
2022/03/30 11:31:22;;;;;;;;;;;13.60;99.90;;;;;;5042984;28;19925;-70
2022/03/30 11:34:17;;;;;;;;;;;13.60;99.90;;;;;;5042202;28;20012;-71
2022/03/30 11:36:42;;;;;;;;;;;13.60;99.90;;;;;;5029036;28;19955;-71
2022/03/30 11:39:09;;;;;;;;;;;13.60;99.90;;;;;;5039706;28;19948;-70
2022/03/30 11:41:35;;;;;;;;;;;13.60;99.90;;;;;;5044742;28;19912;-72
2022/03/30 11:46:45;;;;;;;;;;;13.60;99.90;;;;;;5041382;28;20076;-72
2022/03/30 11:49:13;;;;;;;;;;;13.60;99.90;;;;;;5046156;28;20400;-70
2022/03/30 11:51:38;;;;;;;;;;;13.60;99.90;;;;;;5046866;28;19913;-72
2022/03/30 11:54:14;;;;;;;;;;;13.60;99.90;;;;;;5042942;28;19919;-70
2022/03/30 11:56:40;;;;;;;;;;;13.70;99.90;;;;;;5040896;28;19935;-72
2022/03/30 11:59:06;;;;;;;;;;;13.80;99.90;;;;;;5044587;28;19970;-72
2022/03/30 12:01:34;;;;;;;;;;;13.90;99.90;;;;;;5042787;28;19928;-70
2022/03/30 12:03:59;;;;;;;;;;;14.00;99.90;;;;;;5041970;28;19973;-70
2022/03/30 12:06:24;;;;;;;;;;;14.10;99.90;;;;;;5039921;28;19924;-71
2022/03/30 12:08:51;;;;;;;;;;;14.10;99.90;;;;;;5040267;28;19928;-69
2022/03/30 12:11:20;;;;;;;;;;;14.20;99.90;;;;;;5042983;28;19925;-71
2022/03/30 12:13:52;;;;;;;;;;;14.30;99.90;;;;;;5040532;28;19945;-72
2022/03/30 12:16:19;;;;;;;;;;;14.40;99.90;;;;;;5043218;28;19913;-69
2022/03/30 12:18:45;;;;;;;;;;;14.50;99.90;;;;;;5040603;28;19912;-71
2022/03/30 12:21:13;;;;;;;;;;;14.60;99.90;;;;;;5041606;28;19920;-72
2022/03/30 12:23:48;;;;;;;;;;;14.60;99.90;;;;;;5040735;28;20381;-71
2022/03/30 12:26:14;;;;;;;;;;;14.60;99.90;;;;;;5042892;28;19917;-69
2022/03/30 12:28:40;;;;;;;;;;;14.40;99.90;;;;;;5040926;28;19913;-71
2022/03/30 12:31:07;;;;;;;;;;;14.40;99.90;;;;;;5042922;28;20388;-70
2022/03/30 12:33:41;;;;;;;;;;;14.30;99.90;;;;;;5040996;28;19920;-71
2022/03/30 12:36:14;;;;;;;;;;;14.40;99.90;;;;;;5038360;28;19916;-71
2022/03/30 12:38:39;;;;;;;;;;;14.50;99.90;;;;;;5040150;28;19917;-70
2022/03/30 12:41:05;;;;;;;;;;;14.60;99.90;;;;;;5041792;28;19921;-70
2022/03/30 12:43:30;;;;;;;;;;;14.70;99.90;;;;;;5024858;28;19921;-70
2022/03/30 12:45:59;;;;;;;;;;;14.90;99.90;;;;;;5043528;28;20050;-69
2022/03/30 12:48:29;;;;;;;;;;;15.00;99.90;;;;;;5040488;28;20086;-70
2022/03/30 12:50:58;;;;;;;;;;;15.10;99.90;;;;;;5038775;28;19987;-71
2022/03/30 12:53:29;;;;;;;;;;;15.10;99.90;;;;;;5041640;28;20605;-71
2022/03/30 12:55:54;;;;;;;;;;;15.10;99.90;;;;;;5041166;28;19953;-68
2022/03/30 12:58:23;;;;;;;;;;;15.10;99.90;;;;;;5042233;28;20432;-69
2022/03/30 13:00:53;;;;;;;;;;;15.00;99.90;;;;;;5042723;28;19913;-70
2022/03/30 13:03:18;;;;;;;;;;;14.90;99.90;;;;;;5039272;28;19913;-70
2022/03/30 13:05:48;;;;;;;;;;;14.80;99.90;;;;;;5039629;28;19913;-71
2022/03/30 13:08:18;;;;;;;;;;;14.70;99.90;;;;;;5041825;28;19928;-70
2022/03/30 13:10:51;;;;;;;;;;;14.70;99.90;;;;;;5039070;28;19921;-70
2022/03/30 13:13:17;;;;;;;;;;;14.50;99.90;;;;;;5043502;28;20590;-69
2022/03/30 13:15:43;;;;;;;;;;;14.40;99.90;;;;;;5039857;28;20375;-71
2022/03/30 13:18:10;;;;;;;;;;;14.40;99.90;;;;;;5038156;28;19941;-71
2022/03/30 13:20:36;;;;;;;;;;;14.30;99.90;;;;;;5040275;28;19941;-72
2022/03/30 13:23:02;;;;;;;;;;;14.30;99.90;;;;;;5040608;28;19913;-72
2022/03/30 13:25:35;;;;;;;;;;;14.20;99.90;;;;;;5044127;28;19917;-71
2022/03/30 13:28:02;;;;;;;;;;;14.10;99.90;;;;;;5040646;28;19986;-72
2022/03/30 13:30:28;;;;;;;;;;;14.00;99.90;;;;;;5042993;28;19993;-71
2022/03/30 13:32:54;;;;;;;;;;;14.00;99.90;;;;;;5038828;28;19925;-71
2022/03/30 13:35:20;;;;;;;;;;;14.00;99.90;;;;;;5041231;28;20404;-70
2022/03/30 13:37:45;;;;;;;;;;;14.00;99.90;;;;;;5039687;28;19917;-71
2022/03/30 13:40:11;;;;;;;;;;;14.00;99.90;;;;;;5041275;28;19913;-71
2022/03/30 13:42:36;;;;;;;;;;;14.00;99.90;;;;;;5038315;28;19967;-71
2022/03/30 13:45:03;;;;;;;;;;;13.90;99.90;;;;;;5038122;28;19925;-72
2022/03/30 13:47:29;;;;;;;;;;;13.90;99.90;;;;;;5040542;28;19919;-69
2022/03/30 13:49:54;;;;;;;;;;;14.00;99.90;;;;;;5040619;28;19928;-70
2022/03/30 13:52:21;;;;;;;;;;;14.10;99.90;;;;;;5041575;28;20373;-71
2022/03/30 13:54:47;;;;;;;;;;;14.10;99.90;;;;;;5039328;28;19981;-71
2022/03/30 13:57:12;;;;;;;;;;;14.30;99.90;;;;;;5037273;28;19913;-68
2022/03/30 13:59:39;;;;;;;;;;;14.30;99.90;;;;;;5039062;28;20385;-69
2022/03/30 14:02:05;;;;;;;;;;;14.30;99.90;;;;;;5039395;28;20008;-70
2022/03/30 14:04:31;;;;;;;;;;;14.30;99.90;;;;;;5040527;28;20629;-70
2022/03/30 14:06:56;;;;;;;;;;;14.40;99.90;;;;;;5039864;28;19916;-71
2022/03/30 14:09:22;;;;;;;;;;;14.50;99.90;;;;;;5038115;28;20032;-70
2022/03/30 14:11:48;;;;;;;;;;;14.60;99.90;;;;;;5020559;28;20388;-70
2022/03/30 14:14:14;;;;;;;;;;;14.70;99.90;;;;;;5041075;28;19917;-70
2022/03/30 14:16:39;;;;;;;;;;;14.80;99.90;;;;;;5040069;28;19960;-70
2022/03/30 14:19:05;;;;;;;;;;;14.90;99.90;;;;;;5043046;28;19913;-70
2022/03/30 14:21:31;;;;;;;;;;;14.90;99.90;;;;;;5039624;28;19913;-71
2022/03/30 14:23:56;;;;;;;;;;;14.90;99.90;;;;;;5038371;28;19913;-71
2022/03/30 14:26:22;;;;;;;;;;;14.90;99.90;;;;;;5039888;28;19917;-68
2022/03/30 14:28:47;;;;;;;;;;;14.90;99.90;;;;;;5040186;28;20283;-70
2022/03/30 14:31:13;;;;;;;;;;;14.90;99.90;;;;;;5041954;28;20083;-71